Time;durP1;ratioP1;P1;durP2;ratioP2;P2;SDS_P1;SDS_P2;PMS_P1;PMS_P2;Temp;Humidity;BMP_temperature;BMP_pressure;BME280_temperature;BME280_humidity;BME280_pressure;Samples;Min_cycle;Max_cycle;Signal;HPM_P1;HPM_P2
2023/08/26 00:01:55;;;;;;;13.60;11.30;;;;;;;22.57;77.90;99872.14;104031;276;38851;-74
2023/08/26 00:04:29;;;;;;;12.20;11.10;;;;;;;22.53;78.24;99861.02;104071;276;38425;-71
2023/08/26 00:07:06;;;;;;;12.60;11.30;;;;;;;22.50;78.93;99857.98;104012;276;38223;-71
2023/08/26 00:09:40;;;;;;;13.10;11.90;;;;;;;22.47;79.37;99861.08;104027;276;38417;-74
2023/08/26 00:12:14;;;;;;;12.80;11.60;;;;;;;22.46;79.77;99853.38;104034;276;38943;-73
2023/08/26 00:14:48;;;;;;;12.20;11.00;;;;;;;22.45;79.77;99846.02;104022;275;39495;-73
2023/08/26 00:17:21;;;;;;;18.20;12.30;;;;;;;22.38;79.66;99840.07;104069;275;39342;-72
2023/08/26 00:19:56;;;;;;;14.40;12.90;;;;;;;22.34;80.06;99843.82;103999;276;39311;-73
2023/08/26 00:22:30;;;;;;;13.50;12.10;;;;;;;22.32;80.12;99846.49;104061;275;38558;-73
2023/08/26 00:25:04;;;;;;;14.00;12.40;;;;;;;22.28;80.59;99836.39;104013;275;38988;-72
2023/08/26 00:27:39;;;;;;;15.10;13.50;;;;;;;22.27;81.24;99830.27;104046;275;38342;-73
2023/08/26 00:30:14;;;;;;;13.80;12.30;;;;;;;22.27;81.19;99844.71;104062;275;38384;-73
2023/08/26 00:32:48;;;;;;;12.40;11.00;;;;;;;22.25;81.33;99870.95;104043;275;38234;-72
2023/08/26 00:35:22;;;;;;;11.50;6.90;;;;;;;22.24;82.86;99933.59;104014;276;38563;-73
2023/08/26 00:37:56;;;;;;;8.30;3.50;;;;;;;22.14;83.71;99955.52;103890;275;38257;-73
2023/08/26 00:40:30;;;;;;;9.70;4.00;;;;;;;22.01;83.25;99954.92;104023;276;39603;-72
2023/08/26 00:43:11;;;;;;;6.50;4.90;;;;;;;21.91;83.75;99945.88;104105;276;39736;-72
2023/08/26 00:45:45;;;;;;;7.50;5.20;;;;;;;21.85;84.35;99937.61;104005;276;38994;-73
2023/08/26 00:48:19;;;;;;;7.20;5.20;;;;;;;21.77;84.68;99930.99;104055;276;38249;-75
2023/08/26 00:50:53;;;;;;;7.20;5.20;;;;;;;21.69;85.18;99940.44;103939;276;174574;-73
2023/08/26 00:53:27;;;;;;;13.20;5.20;;;;;;;21.63;85.52;99941.60;104068;275;38288;-73
2023/08/26 00:56:01;;;;;;;7.00;4.90;;;;;;;21.54;85.96;99938.48;103869;277;38969;-73
2023/08/26 00:58:35;;;;;;;8.00;4.40;;;;;;;21.46;86.35;99931.08;104016;276;38328;-74
2023/08/26 01:01:09;;;;;;;6.70;4.40;;;;;;;21.34;86.59;99917.21;103997;276;39815;-74
2023/08/26 01:03:43;;;;;;;5.80;4.20;;;;;;;21.19;86.64;99916.27;104067;275;38390;-73
2023/08/26 01:06:17;;;;;;;5.40;3.80;;;;;;;21.03;87.23;99923.82;104050;275;39488;-72
2023/08/26 01:08:51;;;;;;;5.30;3.20;;;;;;;20.92;87.75;99931.73;104053;275;39662;-72
2023/08/26 01:11:29;;;;;;;6.40;3.40;;;;;;;20.83;88.25;99925.44;104043;276;39557;-74
2023/08/26 01:14:10;;;;;;;5.20;3.30;;;;;;;20.79;88.75;99913.89;104071;275;38563;-72
2023/08/26 01:16:44;;;;;;;5.60;2.60;;;;;;;20.72;89.22;99900.52;103952;276;172199;-72
2023/08/26 01:19:27;;;;;;;3.00;2.50;;;;;;;20.66;89.74;99891.17;104077;276;39950;-72
2023/08/26 01:22:08;;;;;;;5.90;3.10;;;;;;;20.63;90.23;99884.31;104067;276;39400;-73
2023/08/26 01:24:42;;;;;;;6.10;2.80;;;;;;;20.60;90.73;99884.58;104027;265;38241;-73
2023/08/26 01:27:16;;;;;;;3.50;2.70;;;;;;;20.57;91.19;99880.05;104070;276;38731;-72
2023/08/26 01:29:51;;;;;;;5.30;2.80;;;;;;;20.55;91.81;99870.31;103938;265;174593;-73
2023/08/26 01:32:29;;;;;;;6.20;2.90;;;;;;;20.54;92.40;99857.95;104021;276;38240;-73
2023/08/26 01:35:05;;;;;;;2.80;2.60;;;;;;;20.54;92.95;99854.42;104030;280;38744;-73
2023/08/26 01:37:40;;;;;;;4.10;2.90;;;;;;;20.56;93.74;99852.30;103862;277;38753;-72
2023/08/26 01:40:14;;;;;;;3.80;3.30;;;;;;;20.58;94.47;99857.45;104016;276;38515;-72
2023/08/26 01:42:48;;;;;;;9.10;3.30;;;;;;;20.60;94.70;99852.88;104091;276;38523;-74
2023/08/26 01:45:22;;;;;;;4.70;3.30;;;;;;;20.55;94.76;99848.66;104038;276;39014;-74
2023/08/26 01:47:56;;;;;;;4.50;3.60;;;;;;;20.52;95.28;99839.70;104053;276;38418;-72
2023/08/26 01:50:30;;;;;;;6.60;4.10;;;;;;;20.54;96.10;99841.35;104017;276;39467;-74
2023/08/26 01:53:04;;;;;;;5.30;3.50;;;;;;;20.55;96.50;99848.50;104037;276;39950;-72
2023/08/26 01:55:38;;;;;;;4.30;3.30;;;;;;;20.56;96.84;99859.71;104018;276;38410;-73
2023/08/26 01:58:12;;;;;;;4.90;3.50;;;;;;;20.55;97.14;99871.70;104074;276;38467;-73
2023/08/26 02:00:46;;;;;;;4.50;3.40;;;;;;;20.56;97.49;99866.88;103981;276;38500;-74
2023/08/26 02:03:20;;;;;;;5.50;3.40;;;;;;;20.53;97.64;99855.37;104056;276;39578;-72
2023/08/26 02:05:54;;;;;;;4.40;3.00;;;;;;;20.52;97.63;99852.51;104055;275;39641;-72
2023/08/26 02:08:28;;;;;;;3.80;3.40;;;;;;;20.45;97.58;99845.49;104053;275;39039;-72
2023/08/26 02:11:02;;;;;;;5.00;3.10;;;;;;;20.40;97.66;99832.06;104082;275;38325;-73
2023/08/26 02:13:36;;;;;;;4.10;3.40;;;;;;;20.33;97.50;99825.02;103895;275;39464;-73
2023/08/26 02:16:10;;;;;;;4.10;3.30;;;;;;;20.31;98.23;99817.48;104047;264;38216;-72
2023/08/26 02:18:45;;;;;;;5.10;3.20;;;;;;;20.31;98.85;99814.78;104047;276;38939;-74
2023/08/26 02:21:19;;;;;;;4.40;3.30;;;;;;;20.34;99.14;99814.03;104043;275;40199;-72
2023/08/26 02:23:53;;;;;;;4.80;3.50;;;;;;;20.35;99.28;99812.67;104063;275;38288;-72
2023/08/26 02:26:27;;;;;;;4.80;3.60;;;;;;;20.30;99.17;99807.27;103780;275;189050;-72
2023/08/26 02:29:01;;;;;;;6.80;3.60;;;;;;;20.32;99.63;99809.77;104036;276;38242;-74
2023/08/26 02:31:34;;;;;;;4.10;3.50;;;;;;;20.32;99.83;99812.54;103901;275;174859;-72
2023/08/26 02:34:08;;;;;;;4.20;3.60;;;;;;;20.32;99.87;99817.35;104077;275;39832;-72
2023/08/26 02:36:42;;;;;;;3.80;3.50;;;;;;;20.30;99.79;99821.45;104006;276;38510;-74
2023/08/26 02:39:16;;;;;;;4.90;3.40;;;;;;;20.26;99.54;99826.41;104045;276;39929;-73
2023/08/26 02:41:50;;;;;;;4.10;3.20;;;;;;;20.20;99.74;99828.18;104062;275;38911;-73
2023/08/26 02:44:24;;;;;;;6.60;3.10;;;;;;;20.17;99.67;99831.81;104093;275;38771;-72
2023/08/26 02:46:58;;;;;;;4.60;4.10;;;;;;;20.09;99.45;99835.15;104049;276;39443;-72
2023/08/26 02:49:38;;;;;;;4.20;3.60;;;;;;;20.02;99.81;99836.23;104006;275;39654;-74
2023/08/26 02:52:12;;;;;;;4.90;3.10;;;;;;;20.02;100.00;99834.86;104040;275;38823;-72
2023/08/26 02:54:46;;;;;;;3.60;3.30;;;;;;;20.00;100.00;99836.56;104041;275;38718;-72
2023/08/26 02:57:22;;;;;;;5.20;3.90;;;;;;;19.96;100.00;99839.98;103857;276;38758;-72
2023/08/26 02:59:56;;;;;;;4.60;4.00;;;;;;;19.93;100.00;99843.77;104076;275;39470;-72
2023/08/26 03:02:30;;;;;;;5.30;3.50;;;;;;;19.90;100.00;99850.95;103884;276;38353;-74
2023/08/26 03:05:04;;;;;;;5.40;3.50;;;;;;;19.87;100.00;99855.66;103986;275;38233;-73
2023/08/26 03:07:38;;;;;;;3.30;3.00;;;;;;;19.81;100.00;99856.45;104045;275;38529;-73
2023/08/26 03:10:12;;;;;;;3.90;3.60;;;;;;;19.75;100.00;99858.27;104000;276;38268;-72
2023/08/26 03:12:46;;;;;;;3.60;3.30;;;;;;;19.71;100.00;99860.02;104073;275;40109;-73
2023/08/26 03:15:20;;;;;;;4.40;3.40;;;;;;;19.67;100.00;99857.86;102754;275;892412;-72
2023/08/26 03:17:54;;;;;;;5.20;4.20;;;;;;;19.64;100.00;99863.96;104027;275;39690;-73
2023/08/26 03:20:28;;;;;;;4.90;4.40;;;;;;;19.58;100.00;99867.09;104007;276;39651;-71
2023/08/26 03:23:02;;;;;;;4.50;4.10;;;;;;;19.52;100.00;99869.67;104069;275;38333;-72
2023/08/26 03:25:40;;;;;;;5.10;4.10;;;;;;;19.48;100.00;99865.06;104023;275;39416;-73
2023/08/26 03:28:14;;;;;;;5.50;3.70;;;;;;;19.45;100.00;99865.33;104108;276;38397;-74
2023/08/26 03:30:48;;;;;;;7.50;4.10;;;;;;;19.41;100.00;99861.41;104007;275;38263;-72
2023/08/26 03:33:22;;;;;;;4.70;4.00;;;;;;;19.38;100.00;99862.52;104061;276;38441;-74
2023/08/26 03:35:56;;;;;;;4.90;4.00;;;;;;;19.31;100.00;99866.23;104039;276;38239;-74
2023/08/26 03:38:30;;;;;;;4.90;3.70;;;;;;;19.30;100.00;99866.67;104057;275;38817;-74
2023/08/26 03:41:06;;;;;;;4.40;4.00;;;;;;;19.27;100.00;99867.70;103919;276;39667;-74
2023/08/26 03:43:40;;;;;;;3.70;3.40;;;;;;;19.23;100.00;99872.10;104113;276;38278;-74
2023/08/26 03:46:14;;;;;;;5.30;4.50;;;;;;;19.20;100.00;99871.64;104043;276;38430;-73
2023/08/26 03:48:48;;;;;;;4.70;4.20;;;;;;;19.19;100.00;99868.36;104039;276;38584;-74
2023/08/26 03:51:22;;;;;;;4.70;4.30;;;;;;;19.17;100.00;99862.98;104049;276;40051;-74
2023/08/26 03:53:56;;;;;;;7.70;4.80;;;;;;;19.16;100.00;99859.26;104069;265;39988;-72
2023/08/26 03:56:30;;;;;;;4.80;4.30;;;;;;;19.13;100.00;99863.55;103987;274;38711;-73
2023/08/26 03:59:04;;;;;;;4.40;4.00;;;;;;;19.11;100.00;99865.66;104039;277;38540;-72
2023/08/26 04:01:38;;;;;;;4.50;4.10;;;;;;;19.12;100.00;99868.80;103984;277;38301;-72
2023/08/26 04:04:11;;;;;;;4.80;4.50;;;;;;;19.14;100.00;99869.85;104005;277;38532;-72
2023/08/26 04:06:45;;;;;;;4.50;4.10;;;;;;;19.14;100.00;99873.03;104015;277;39913;-71
2023/08/26 04:09:19;;;;;;;4.50;3.40;;;;;;;19.15;100.00;99877.67;104056;277;38773;-74
2023/08/26 04:11:53;;;;;;;3.70;3.30;;;;;;;19.18;100.00;99883.66;103995;277;38733;-74
2023/08/26 04:14:26;;;;;;;5.20;3.70;;;;;;;19.20;100.00;99879.90;104024;277;39741;-73
2023/08/26 04:17:03;;;;;;;4.50;4.10;;;;;;;19.21;100.00;99887.39;103908;277;172135;-74
2023/08/26 04:19:37;;;;;;;9.30;5.10;;;;;;;19.24;100.00;99885.63;103988;277;38236;-72
2023/08/26 04:22:11;;;;;;;5.30;4.10;;;;;;;19.28;100.00;99883.19;104049;277;39425;-72
2023/08/26 04:24:45;;;;;;;4.00;3.60;;;;;;;19.31;100.00;99890.13;103980;277;38425;-72
2023/08/26 04:27:19;;;;;;;4.90;3.90;;;;;;;19.35;100.00;99895.64;104020;277;38531;-73
2023/08/26 04:29:53;;;;;;;4.90;4.50;;;;;;;19.40;100.00;99899.30;104028;277;38521;-74
2023/08/26 04:32:27;;;;;;;5.00;4.50;;;;;;;19.47;100.00;99904.02;104067;277;38678;-73
2023/08/26 04:35:01;;;;;;;6.40;5.30;;;;;;;19.59;100.00;99912.78;104001;277;38517;-73
2023/08/26 04:37:35;;;;;;;5.70;5.10;;;;;;;19.72;100.00;99916.52;104048;277;39295;-72
2023/08/26 04:40:12;;;;;;;8.00;5.80;;;;;;;19.85;100.00;99922.38;103984;277;38386;-72
2023/08/26 04:42:46;;;;;;;7.70;5.60;;;;;;;19.95;100.00;99928.74;104054;277;38823;-72
2023/08/26 04:45:21;;;;;;;6.70;5.40;;;;;;;20.02;100.00;99927.27;104001;277;39986;-73
2023/08/26 04:47:54;;;;;;;6.60;5.00;;;;;;;20.10;100.00;99929.63;104026;276;39779;-74
2023/08/26 04:50:29;;;;;;;6.20;5.50;;;;;;;20.19;100.00;99935.59;104005;277;38262;-73
2023/08/26 04:53:03;;;;;;;6.10;4.90;;;;;;;20.29;100.00;99938.80;103931;276;172156;-72
2023/08/26 04:55:37;;;;;;;5.30;4.50;;;;;;;20.42;100.00;99935.55;104031;276;38515;-72
2023/08/26 04:58:12;;;;;;;7.10;5.30;;;;;;;20.65;100.00;99932.56;104054;276;39916;-73
2023/08/26 05:00:47;;;;;;;5.70;5.10;;;;;;;20.75;100.00;99931.81;104029;276;38243;-73
2023/08/26 05:03:20;;;;;;;6.90;5.50;;;;;;;20.81;100.00;99933.30;104076;268;38446;-73
2023/08/26 05:05:54;;;;;;;5.90;5.00;;;;;;;20.89;100.00;99928.09;104042;276;38405;-72
2023/08/26 05:08:28;;;;;;;7.10;6.10;;;;;;;21.00;100.00;99925.89;104092;275;40019;-74
2023/08/26 05:11:03;;;;;;;5.60;5.00;;;;;;;21.09;100.00;99930.96;104048;275;38811;-74
2023/08/26 05:13:37;;;;;;;6.00;5.40;;;;;;;21.11;100.00;99932.38;103951;275;174809;-73
2023/08/26 05:16:12;;;;;;;6.80;5.70;;;;;;;21.14;100.00;99928.89;104043;276;38429;-73
2023/08/26 05:18:47;;;;;;;6.30;5.70;;;;;;;21.17;100.00;99936.95;101897;275;3013623;-74
2023/08/26 05:21:22;;;;;;;7.10;5.90;;;;;;;21.21;100.00;99933.66;101861;275;3027762;-74
2023/08/26 05:23:56;;;;;;;6.60;6.00;;;;;;;21.28;100.00;99927.35;104093;276;39445;-72
2023/08/26 05:26:31;;;;;;;6.90;6.00;;;;;;;21.35;100.00;99925.26;104049;276;38319;-74
2023/08/26 05:29:05;;;;;;;8.20;6.90;;;;;;;21.43;100.00;99922.05;104005;276;39426;-72
2023/08/26 05:31:40;;;;;;;7.80;6.40;;;;;;;21.51;100.00;99918.85;103984;276;38672;-73
2023/08/26 05:34:14;;;;;;;6.90;6.10;;;;;;;21.58;100.00;99913.12;103861;277;39130;-73
2023/08/26 05:36:49;;;;;;;8.40;7.00;;;;;;;21.62;100.00;99912.30;103844;276;38277;-73
2023/08/26 05:39:23;;;;;;;8.40;6.50;;;;;;;21.69;100.00;99909.91;104051;276;38396;-73
2023/08/26 05:41:57;;;;;;;9.70;6.90;;;;;;;21.97;100.00;99913.73;104011;276;39419;-72
2023/08/26 05:44:34;;;;;;;7.90;6.90;;;;;;;22.76;100.00;99913.80;104030;276;38232;-72
2023/08/26 05:47:09;;;;;;;7.60;6.70;;;;;;;23.71;100.00;99922.38;104065;276;38229;-73
2023/08/26 05:49:43;;;;;;;8.50;6.60;;;;;;;24.66;100.00;99927.32;103872;278;38612;-75
2023/08/26 05:52:18;;;;;;;7.10;6.40;;;;;;;25.42;100.00;99923.63;104054;275;38383;-74
2023/08/26 05:54:53;;;;;;;8.40;6.20;;;;;;;26.14;98.45;99927.70;104028;276;38979;-72
2023/08/26 05:57:28;;;;;;;7.80;5.90;;;;;;;26.75;91.91;99931.02;104068;276;38625;-74
2023/08/26 06:00:04;;;;;;;6.30;5.70;;;;;;;27.25;86.20;99936.23;104000;275;38919;-74
2023/08/26 06:02:39;;;;;;;7.40;5.60;;;;;;;27.99;83.49;99941.39;104033;275;38307;-74
2023/08/26 06:05:14;;;;;;;6.80;6.20;;;;;;;28.83;78.93;99946.01;104015;275;39081;-74
2023/08/26 06:07:49;;;;;;;6.70;5.60;;;;;;;29.63;74.83;99939.37;104076;275;38319;-73
2023/08/26 06:10:24;;;;;;;7.20;6.20;;;;;;;30.40;70.14;99935.57;104058;276;38280;-73
2023/08/26 06:12:59;;;;;;;6.70;5.70;;;;;;;31.13;68.17;99939.74;104065;275;38600;-73
2023/08/26 06:15:33;;;;;;;6.50;5.90;;;;;;;31.44;65.61;99945.96;104054;276;39917;-72
2023/08/26 06:18:10;;;;;;;6.20;5.50;;;;;;;31.35;62.71;99941.08;103837;275;38821;-74
2023/08/26 06:20:45;;;;;;;7.60;5.90;;;;;;;31.12;64.15;99941.09;104017;275;38685;-73
2023/08/26 06:23:21;;;;;;;6.90;6.00;;;;;;;30.69;62.79;99949.27;104098;276;39463;-74
2023/08/26 06:25:57;;;;;;;7.70;6.50;;;;;;;30.24;63.44;99951.87;104034;276;38299;-74
2023/08/26 06:28:31;;;;;;;7.10;6.50;;;;;;;29.78;63.79;99949.83;104059;276;38611;-74
2023/08/26 06:31:09;;;;;;;10.10;6.80;;;;;;;29.39;64.47;99960.73;103848;277;39640;-74
2023/08/26 06:33:44;;;;;;;7.90;6.90;;;;;;;29.08;65.10;99971.72;104092;276;38527;-74
2023/08/26 06:36:19;;;;;;;7.70;7.00;;;;;;;28.86;66.30;99972.41;104019;276;38239;-74
2023/08/26 06:38:55;;;;;;;9.00;6.90;;;;;;;28.62;67.18;99974.21;103847;276;38849;-72
2023/08/26 06:41:32;;;;;;;8.00;7.20;;;;;;;28.44;67.61;99974.84;103853;276;39476;-72
2023/08/26 06:44:08;;;;;;;9.10;8.10;;;;;;;28.26;68.65;99971.92;104062;275;39218;-72
2023/08/26 06:46:45;;;;;;;8.90;8.20;;;;;;;28.08;69.30;99969.89;103886;277;39788;-72
2023/08/26 06:49:21;;;;;;;9.90;8.10;;;;;;;27.91;70.15;99969.42;104092;276;38265;-72
2023/08/26 06:51:57;;;;;;;9.10;8.20;;;;;;;27.78;70.44;99971.11;104063;275;38563;-72
2023/08/26 06:54:35;;;;;;;11.90;8.20;;;;;;;27.64;70.54;99972.05;104048;276;38224;-72
2023/08/26 06:57:10;;;;;;;9.30;8.30;;;;;;;27.50;70.96;99976.92;104046;275;38310;-72
2023/08/26 06:59:45;;;;;;;9.40;8.10;;;;;;;27.36;71.82;99979.35;103432;275;889024;-72
2023/08/26 07:02:19;;;;;;;8.80;7.90;;;;;;;27.24;71.79;99980.38;103867;275;38378;-74
2023/08/26 07:04:54;;;;;;;8.60;7.80;;;;;;;27.17;72.62;99980.69;103444;276;716039;-73
2023/08/26 07:07:31;;;;;;;9.20;8.30;;;;;;;27.12;72.96;99978.90;104017;275;38693;-73
2023/08/26 07:10:06;;;;;;;8.90;8.10;;;;;;;27.10;73.89;99978.18;104011;275;39398;-73
2023/08/26 07:12:42;;;;;;;10.30;8.10;;;;;;;27.11;74.70;99979.73;104067;275;39925;-74
2023/08/26 07:15:17;;;;;;;8.40;7.60;;;;;;;27.15;75.54;99966.97;103819;278;38492;-74
2023/08/26 07:17:52;;;;;;;8.40;7.60;;;;;;;27.23;75.27;99967.45;103891;276;40076;-74
2023/08/26 07:20:27;;;;;;;8.40;7.50;;;;;;;27.35;75.26;99966.79;104037;276;38335;-73
2023/08/26 07:23:01;;;;;;;8.10;7.30;;;;;;;27.60;74.95;99965.55;104078;276;38918;-73
2023/08/26 07:25:37;;;;;;;9.20;7.20;;;;;;;28.07;73.62;99973.95;103934;275;188729;-73
2023/08/26 07:28:12;;;;;;;8.20;7.30;;;;;;;28.63;72.54;99977.00;104064;275;39013;-74
2023/08/26 07:30:47;;;;;;;7.10;6.50;;;;;;;29.32;70.09;99978.42;104034;275;38278;-74
2023/08/26 07:33:22;;;;;;;8.60;7.00;;;;;;;29.82;67.80;99974.23;103844;276;38866;-75
2023/08/26 07:36:03;;;;;;;7.10;6.40;;;;;;;30.12;65.91;99971.06;104048;276;38266;-75
2023/08/26 07:38:38;;;;;;;7.30;6.50;;;;;;;30.15;65.20;99969.23;104097;275;38492;-75
2023/08/26 07:41:14;;;;;;;7.90;6.80;;;;;;;30.11;64.33;99970.23;103860;278;38449;-76
2023/08/26 07:43:48;;;;;;;7.80;6.70;;;;;;;30.03;64.38;99969.61;104039;276;38484;-73
2023/08/26 07:46:24;;;;;;;8.10;6.80;;;;;;;29.95;63.93;99972.28;104025;276;38525;-73
2023/08/26 07:48:59;;;;;;;8.50;6.20;;;;;;;29.94;64.16;99975.05;104065;276;38443;-73
2023/08/26 07:51:34;;;;;;;7.90;7.10;;;;;;;30.01;62.41;99977.07;103410;276;886037;-73
2023/08/26 07:54:09;;;;;;;8.20;7.30;;;;;;;30.34;62.47;99979.19;103897;277;38262;-75
2023/08/26 07:56:44;;;;;;;7.40;6.70;;;;;;;30.77;61.08;99982.08;104032;276;39686;-75
2023/08/26 07:59:19;;;;;;;7.90;6.00;;;;;;;31.31;59.87;99986.10;104045;276;38780;-75
2023/08/26 08:01:54;;;;;;;7.20;6.40;;;;;;;31.99;58.29;99985.75;104001;276;38472;-77
2023/08/26 08:04:30;;;;;;;6.60;5.90;;;;;;;32.74;57.09;99985.60;104060;275;38226;-75
2023/08/26 08:07:06;;;;;;;6.90;6.20;;;;;;;33.37;54.83;99982.36;104025;276;38319;-75
2023/08/26 08:09:44;;;;;;;7.30;6.20;;;;;;;33.90;52.57;99980.73;104007;275;39416;-76
2023/08/26 08:12:22;;;;;;;8.30;6.50;;;;;;;34.36;51.71;99977.73;104033;276;38288;-76
2023/08/26 08:14:58;;;;;;;7.00;5.40;;;;;;;34.85;50.72;99976.44;103958;276;171278;-76
2023/08/26 08:17:35;;;;;;;7.40;6.30;;;;;;;35.38;49.91;99979.14;104096;276;38494;-75
2023/08/26 08:20:13;;;;;;;6.30;5.70;;;;;;;35.83;47.74;99982.20;103824;276;38293;-74
2023/08/26 08:22:51;;;;;;;6.20;5.50;;;;;;;36.29;46.48;99982.70;104078;276;38510;-76
2023/08/26 08:25:39;;;;;;;5.70;5.20;;;;;;;36.76;45.34;99983.50;104007;276;41017;-74
2023/08/26 08:28:19;;;;;;;7.40;5.20;;;;;;;37.32;43.74;99987.08;104042;276;39565;-76
2023/08/26 08:30:57;;;;;;;5.90;5.30;;;;;;;37.65;42.92;99987.33;104031;275;38403;-76
2023/08/26 08:33:43;;;;;;;5.20;4.70;;;;;;;37.97;42.10;99990.70;104009;276;38559;-75
2023/08/26 08:36:20;;;;;;;5.40;4.90;;;;;;;38.31;40.94;99991.71;104005;276;38261;-75
2023/08/26 08:38:57;;;;;;;5.70;5.20;;;;;;;38.51;39.78;99985.55;103893;276;39230;-75
2023/08/26 08:41:33;;;;;;;5.90;4.60;;;;;;;38.72;38.66;99981.30;103887;276;39635;-75
2023/08/26 08:44:14;;;;;;;5.00;4.40;;;;;;;38.91;38.89;99985.16;104103;276;38839;-76
2023/08/26 08:46:50;;;;;;;6.10;4.30;;;;;;;39.03;38.44;99990.61;104026;276;38549;-76
2023/08/26 08:49:25;;;;;;;5.00;4.50;;;;;;;39.25;37.40;99997.91;103877;276;38691;-74
2023/08/26 08:52:04;;;;;;;4.90;3.80;;;;;;;39.43;37.50;99994.78;104014;276;39518;-76
2023/08/26 08:54:41;;;;;;;4.50;4.10;;;;;;;39.66;36.87;99996.59;104036;276;39701;-75
2023/08/26 08:57:19;;;;;;;5.00;4.10;;;;;;;39.85;36.59;99991.16;104056;276;38249;-76
2023/08/26 08:59:54;;;;;;;4.70;4.10;;;;;;;39.96;35.50;99982.16;104007;276;39437;-76
2023/08/26 09:02:30;;;;;;;4.00;3.70;;;;;;;39.98;34.92;99983.93;104063;276;39459;-77
2023/08/26 09:05:07;;;;;;;4.10;3.70;;;;;;;40.15;35.85;99985.97;104021;276;38761;-76
2023/08/26 09:07:43;;;;;;;3.50;3.20;;;;;;;40.29;35.07;99991.05;104052;276;38350;-76
2023/08/26 09:10:19;;;;;;;5.30;3.20;;;;;;;40.36;34.52;99984.29;103840;275;38560;-75
2023/08/26 09:12:55;;;;;;;4.80;3.60;;;;;;;40.45;34.03;99993.40;104082;276;38273;-76
2023/08/26 09:15:31;;;;;;;4.70;3.30;;;;;;;40.45;33.93;99997.25;104060;276;39419;-75
2023/08/26 09:18:12;;;;;;;3.80;3.50;;;;;;;40.44;33.55;99994.29;103905;276;38699;-75
2023/08/26 09:20:50;;;;;;;5.30;4.20;;;;;;;40.27;33.69;99996.85;103857;273;39056;-75
2023/08/26 09:23:26;;;;;;;4.40;3.80;;;;;;;40.13;33.88;99994.38;104038;275;39795;-75
2023/08/26 09:26:01;;;;;;;3.60;3.30;;;;;;;40.08;33.58;99996.25;103842;278;39488;-75
2023/08/26 09:28:38;;;;;;;4.40;3.60;;;;;;;40.04;33.70;99993.20;103857;276;38379;-75
2023/08/26 09:31:14;;;;;;;6.40;3.80;;;;;;;39.91;33.74;99996.25;104009;275;38936;-75
2023/08/26 09:34:01;;;;;;;4.50;3.70;;;;;;;39.60;34.10;100000.55;103830;279;40753;-75
2023/08/26 09:36:45;;;;;;;5.00;3.90;;;;;;;39.38;35.15;100001.84;104012;276;38646;-75
2023/08/26 09:39:21;;;;;;;4.40;3.40;;;;;;;39.08;35.31;100002.39;104053;275;38422;-74
2023/08/26 09:41:59;;;;;;;4.70;3.40;;;;;;;38.71;34.94;100009.04;104081;276;39477;-74
2023/08/26 09:44:37;;;;;;;5.30;3.50;;;;;;;38.21;35.23;100015.36;104042;276;38242;-75
2023/08/26 09:47:15;;;;;;;3.70;3.20;;;;;;;37.77;35.92;100018.48;103859;277;38269;-75
2023/08/26 09:49:51;;;;;;;;;;;;;;;37.36;36.17;100016.85;104038;276;38322;-74
2023/08/26 09:52:26;;;;;;;4.30;3.40;;;;;;;36.85;36.61;100010.35;104062;276;38477;-75
2023/08/26 09:55:00;;;;;;;5.00;4.20;;;;;;;36.23;36.84;100009.66;103818;267;41619;-75
2023/08/26 09:57:34;;;;;;;3.90;3.10;;;;;;;35.69;37.62;100012.74;104049;276;38342;-74
2023/08/26 10:00:12;;;;;;;5.00;3.30;;;;;;;35.27;37.51;100010.63;104029;275;38243;-74
2023/08/26 10:02:49;;;;;;;3.10;2.70;;;;;;;34.82;38.88;100014.68;104062;276;39582;-74
2023/08/26 10:05:24;;;;;;;4.50;2.80;;;;;;;34.63;39.91;100009.73;104029;275;38265;-74
2023/08/26 10:07:58;;;;;;;3.70;3.00;;;;;;;34.43;40.86;100010.40;103409;276;886988;-74
2023/08/26 10:10:35;;;;;;;3.90;3.20;;;;;;;34.31;41.20;100010.13;103810;275;38536;-74
2023/08/26 10:13:09;;;;;;;4.20;3.20;;;;;;;34.35;41.78;100008.92;103858;277;39353;-73
2023/08/26 10:15:44;;;;;;;5.40;2.90;;;;;;;34.38;40.92;100009.02;104053;275;38255;-73
2023/08/26 10:18:20;;;;;;;4.00;2.80;;;;;;;34.26;40.16;100007.54;104064;276;38508;-74
2023/08/26 10:20:56;;;;;;;4.90;3.20;;;;;;;34.10;39.91;100016.48;104029;276;38806;-73
2023/08/26 10:23:30;;;;;;;4.30;2.70;;;;;;;34.11;41.00;100014.89;103870;275;38441;-75
2023/08/26 10:26:04;;;;;;;2.90;2.60;;;;;;;34.00;40.62;100014.14;103994;275;39905;-74
2023/08/26 10:28:38;;;;;;;3.70;2.90;;;;;;;33.75;40.76;100015.06;104039;276;38383;-74
2023/08/26 10:31:12;;;;;;;5.10;3.10;;;;;;;33.51;41.25;100013.40;104054;276;38432;-74
2023/08/26 10:34:13;;;;;;;3.20;2.80;;;;;;;33.29;41.35;100014.05;103904;277;38505;-74
2023/08/26 10:36:51;;;;;;;3.70;2.70;;;;;;;33.03;41.52;100014.23;104023;275;38237;-73
2023/08/26 10:39:24;;;;;;;4.30;2.30;;;;;;;32.84;41.95;100010.19;104056;275;38348;-75
2023/08/26 10:42:16;;;;;;;3.80;2.90;;;;;;;32.64;41.98;100012.50;104068;276;40084;-74
2023/08/26 10:44:54;;;;;;;3.20;2.60;;;;;;;32.43;42.51;100011.94;104040;276;38230;-74
2023/08/26 10:47:40;;;;;;;3.10;2.70;;;;;;;32.25;42.87;100006.29;104053;275;38232;-74
2023/08/26 10:50:22;;;;;;;4.70;2.50;;;;;;;32.07;43.21;99998.05;104013;275;38222;-74
2023/08/26 10:52:59;;;;;;;5.10;2.40;;;;;;;31.89;43.21;99996.41;103854;277;38583;-74
2023/08/26 10:55:35;;;;;;;3.30;3.00;;;;;;;31.71;43.62;99996.80;104026;276;39786;-73
2023/08/26 10:58:16;;;;;;;2.80;2.60;;;;;;;31.53;44.90;99992.80;104047;275;38675;-74
2023/08/26 11:00:51;;;;;;;3.00;2.70;;;;;;;31.36;44.81;99992.58;103840;275;39275;-73
2023/08/26 11:03:25;;;;;;;2.90;2.70;;;;;;;31.18;44.99;99992.11;104085;265;38864;-75
2023/08/26 11:06:08;;;;;;;3.50;2.70;;;;;;;30.99;45.51;99996.02;103794;265;39785;-74
2023/08/26 11:08:48;;;;;;;3.40;2.70;;;;;;;30.77;46.45;99993.64;104061;275;38281;-74
2023/08/26 11:11:22;;;;;;;3.00;2.40;;;;;;;30.60;46.71;99995.33;104001;275;39668;-74
2023/08/26 11:13:56;;;;;;;3.60;2.50;;;;;;;30.51;46.97;99989.11;104088;275;38227;-74
2023/08/26 11:16:30;;;;;;;4.00;2.60;;;;;;;30.47;47.29;99983.23;104028;275;38290;-74
2023/08/26 11:19:04;;;;;;;4.00;2.70;;;;;;;30.57;47.44;99988.79;104089;275;38392;-73
2023/08/26 11:21:40;;;;;;;3.00;2.70;;;;;;;30.79;47.60;99986.58;103816;275;38185;-73
2023/08/26 11:24:14;;;;;;;4.10;2.80;;;;;;;31.09;47.37;99983.55;103858;275;38945;-73
2023/08/26 11:26:54;;;;;;;3.60;2.40;;;;;;;31.28;46.69;99979.94;104042;275;38494;-73
2023/08/26 11:29:28;;;;;;;3.50;2.70;;;;;;;31.42;46.32;99975.99;104005;275;39423;-73
2023/08/26 11:32:06;;;;;;;2.80;2.50;;;;;;;31.45;45.81;99973.43;104086;275;38412;-73
2023/08/26 11:34:39;;;;;;;3.00;2.60;;;;;;;31.44;45.62;99966.35;104025;275;39663;-74
2023/08/26 11:37:13;;;;;;;3.80;2.40;;;;;;;31.47;46.11;99970.81;103856;276;38774;-74
2023/08/26 11:39:47;;;;;;;2.80;2.60;;;;;;;31.47;45.89;99968.58;104063;276;38415;-74
2023/08/26 11:42:21;;;;;;;2.90;2.70;;;;;;;31.45;45.61;99967.92;104062;275;38255;-74
2023/08/26 11:44:55;;;;;;;5.30;2.60;;;;;;;31.42;45.55;99966.30;104022;275;40226;-74
2023/08/26 11:47:29;;;;;;;2.80;2.40;;;;;;;31.37;45.72;99964.59;104050;275;39306;-74
2023/08/26 11:50:04;;;;;;;4.10;2.80;;;;;;;31.36;45.28;99964.92;104035;276;38253;-73
2023/08/26 11:52:41;;;;;;;4.30;2.50;;;;;;;31.34;45.65;99966.58;103894;276;39352;-73
2023/08/26 11:55:15;;;;;;;5.10;2.70;;;;;;;31.33;45.64;99970.11;104031;276;38973;-73
2023/08/26 11:57:49;;;;;;;2.70;2.50;;;;;;;31.33;45.47;99969.36;104000;276;38636;-73
2023/08/26 12:00:24;;;;;;;3.40;2.80;;;;;;;31.37;45.71;99969.45;104040;276;39438;-72
2023/08/26 12:03:04;;;;;;;3.10;2.30;;;;;;;31.39;45.71;99970.25;104025;276;39699;-74
2023/08/26 12:05:49;;;;;;;2.80;2.40;;;;;;;31.39;45.56;99972.71;104006;276;38968;-74
2023/08/26 12:08:26;;;;;;;3.80;2.60;;;;;;;31.35;45.47;99976.72;104105;276;38318;-73